Time;durP1;ratioP1;P1;durP2;ratioP2;P2;SDS_P1;SDS_P2;PMS_P1;PMS_P2;Temp;Humidity;BMP_temperature;BMP_pressure;BME280_temperature;BME280_humidity;BME280_pressure;Samples;Min_cycle;Max_cycle;Signal;HPM_P1;HPM_P2
2023/07/27 00:01:39;;;;;;;;;;;;;;;10.46;100.00;95728.13;10484824;28;2187;-76
2023/07/27 00:06:47;;;;;;;;;;;;;;;10.48;100.00;95728.66;10475176;28;1847;-78
2023/07/27 00:11:53;;;;;;;;;;;;;;;10.47;100.00;95727.03;10483247;28;1863;-76
2023/07/27 00:16:56;;;;;;;;;;;;;;;10.52;100.00;95721.66;10472644;28;2350;-76
2023/07/27 00:22:02;;;;;;;;;;;;;;;10.45;100.00;95721.94;10475508;28;2052;-78
2023/07/27 00:27:08;;;;;;;;;;;;;;;10.47;100.00;95713.63;10473983;28;1859;-77
2023/07/27 00:32:12;;;;;;;;;;;;;;;10.37;100.00;95710.94;10461315;28;2275;-77
2023/07/27 00:37:16;;;;;;;;;;;;;;;10.32;100.00;95714.47;10486294;28;4552;-78
2023/07/27 00:42:19;;;;;;;;;;;;;;;10.46;100.00;95702.06;10474907;28;1946;-77
2023/07/27 00:47:23;;;;;;;;;;;;;;;10.29;100.00;95710.44;10481712;28;2238;-78
2023/07/27 00:52:33;;;;;;;;;;;;;;;10.24;100.00;95707.78;10477358;28;1954;-78
2023/07/27 00:57:37;;;;;;;;;;;;;;;10.19;100.00;95699.69;10479581;28;2140;-76
2023/07/27 01:02:40;;;;;;;;;;;;;;;10.14;100.00;95702.38;10479087;28;2096;-77
2023/07/27 01:07:45;;;;;;;;;;;;;;;10.13;100.00;95710.72;10477901;28;1954;-78
2023/07/27 01:12:50;;;;;;;;;;;;;;;10.16;100.00;95694.06;10486826;28;2383;-75
2023/07/27 01:17:54;;;;;;;;;;;;;;;10.12;100.00;95699.19;10477519;28;2026;-76
2023/07/27 01:23:01;;;;;;;;;;;;;;;10.03;100.00;95695.44;10479557;28;1965;-76
2023/07/27 01:28:10;;;;;;;;;;;;;;;9.91;100.00;95693.03;10458977;28;2004;-76
2023/07/27 01:33:14;;;;;;;;;;;;;;;9.92;100.00;95693.81;10479797;28;2029;-76
2023/07/27 01:38:18;;;;;;;;;;;;;;;10.01;100.00;95679.59;10483477;28;4587;-76
2023/07/27 01:43:22;;;;;;;;;;;;;;;9.91;100.00;95678.78;10485595;28;1981;-78
2023/07/27 01:48:37;;;;;;;;;;;;;;;9.93;100.00;95676.66;10482586;28;2084;-77
2023/07/27 01:53:43;;;;;;;;;;;;;;;9.92;100.00;95675.84;10491953;28;2052;-77
2023/07/27 01:58:51;;;;;;;;;;;;;;;9.87;100.00;95665.13;10487439;28;2000;-76
2023/07/27 02:04:02;;;;;;;;;;;;;;;9.85;100.00;95671.81;10485568;28;1902;-76
2023/07/27 02:09:07;;;;;;;;;;;;;;;9.80;100.00;95669.13;10486038;28;2366;-76
2023/07/27 02:14:17;;;;;;;;;;;;;;;9.85;100.00;95666.44;10479412;28;2223;-76
2023/07/27 02:19:21;;;;;;;;;;;;;;;9.68;100.00;95664.88;10479841;28;2109;-76
2023/07/27 02:24:26;;;;;;;;;;;;;;;9.75;100.00;95662.72;10478547;28;1960;-76
2023/07/27 02:29:38;;;;;;;;;;;;;;;9.82;100.00;95664.31;10484082;28;1906;-76
2023/07/27 02:34:43;;;;;;;;;;;;;;;9.71;100.00;95656.28;10485385;28;1970;-77
2023/07/27 02:39:54;;;;;;;;;;;;;;;9.72;100.00;95655.19;10474753;28;4603;-77
2023/07/27 02:44:58;;;;;;;;;;;;;;;9.69;100.00;95647.69;10485476;28;1870;-77
2023/07/27 02:50:01;;;;;;;;;;;;;;;9.78;100.00;95655.19;10478785;28;2039;-77
2023/07/27 02:55:09;;;;;;;;;;;;;;;9.80;100.00;95647.66;10474363;28;2041;-77
2023/07/27 03:00:13;;;;;;;;;;;;;;;9.72;100.00;95647.16;10481756;28;2148;-77
2023/07/27 03:05:33;;;;;;;;;;;;;;;9.73;100.00;95646.09;10480279;28;2007;-78
2023/07/27 03:10:38;;;;;;;;;;;;;;;9.62;100.00;95652.53;10482524;28;2183;-77
2023/07/27 03:15:42;;;;;;;;;;;;;;;9.59;100.00;95647.69;10473502;28;1997;-77
2023/07/27 03:20:45;;;;;;;;;;;;;;;9.72;100.00;95651.72;10477370;28;2398;-77
2023/07/27 03:25:51;;;;;;;;;;;;;;;9.69;100.00;95639.66;10480984;28;1965;-76
2023/07/27 03:30:55;;;;;;;;;;;;;;;9.69;100.00;95639.66;10487155;28;1931;-76
2023/07/27 03:35:59;;;;;;;;;;;;;;;9.65;100.00;95629.72;10479043;28;4975;-77
2023/07/27 03:41:03;;;;;;;;;;;;;;;9.59;100.00;95628.91;10479158;28;2398;-77
2023/07/27 03:46:08;;;;;;;;;;;;;;;9.57;100.00;95633.75;10477723;28;1964;-77
2023/07/27 03:51:14;;;;;;;;;;;;;;;9.61;100.00;95624.09;10479456;28;2054;-77
2023/07/27 03:56:17;;;;;;;;;;;;;;;9.68;100.00;95613.88;10479648;28;2186;-78
2023/07/27 04:01:21;;;;;;;;;;;;;;;9.74;100.00;95614.69;10481105;28;2299;-76
2023/07/27 04:06:26;;;;;;;;;;;;;;;9.96;100.00;95607.09;10481312;28;1970;-77
2023/07/27 04:11:31;;;;;;;;;;;;;;;10.21;100.00;95600.81;10477403;28;1977;-78
2023/07/27 04:16:44;;;;;;;;;;;;;;;10.42;100.00;95601.56;10475884;28;1998;-77
2023/07/27 04:21:49;;;;;;;;;;;;;;;10.52;100.00;95589.97;10477834;28;1972;-77
2023/07/27 04:26:54;;;;;;;;;;;;;;;10.74;100.00;95581.50;10469187;28;1929;-76
2023/07/27 04:32:00;;;;;;;;;;;;;;;11.05;100.00;95592.84;10474808;28;2166;-76
2023/07/27 04:37:05;;;;;;;;;;;;;;;11.33;100.00;95584.00;10476331;28;4564;-77
2023/07/27 04:42:10;;;;;;;;;;;;;;;11.62;100.00;95586.69;10490510;28;1938;-76
2023/07/27 04:47:15;;;;;;;;;;;;;;;11.98;100.00;95582.88;10473436;28;1902;-76
2023/07/27 04:52:19;;;;;;;;;;;;;;;12.13;100.00;95586.16;10479918;28;1926;-77
2023/07/27 04:57:22;;;;;;;;;;;;;;;12.15;100.00;95583.19;10473935;28;2303;-76
2023/07/27 05:02:26;;;;;;;;;;;;;;;11.64;100.00;95583.72;10482903;28;2605;-77
2023/07/27 05:07:33;;;;;;;;;;;;;;;11.52;100.00;95591.38;10459832;28;2039;-75
2023/07/27 05:12:51;;;;;;;;;;;;;;;11.67;100.00;95593.13;10474831;28;1884;-75
2023/07/27 05:17:58;;;;;;;;;;;;;;;12.51;100.00;95564.66;10474530;28;2056;-76
2023/07/27 05:23:02;;;;;;;;;;;;;;;13.15;100.00;95567.78;10485372;28;1871;-77
2023/07/27 05:28:09;;;;;;;;;;;;;;;13.80;100.00;95554.25;10479491;28;1978;-77
2023/07/27 05:33:14;;;;;;;;;;;;;;;14.69;100.00;95539.47;10474308;28;1962;-78
2023/07/27 05:38:26;;;;;;;;;;;;;;;15.77;100.00;95543.88;10477765;28;4556;-76
2023/07/27 05:43:31;;;;;;;;;;;;;;;16.17;100.00;95540.06;10480134;28;1998;-76
2023/07/27 05:48:42;;;;;;;;;;;;;;;15.77;100.00;95543.88;10477434;28;2056;-77
2023/07/27 05:53:47;;;;;;;;;;;;;;;15.45;100.00;95548.47;10477708;28;3070;-77
2023/07/27 05:58:50;;;;;;;;;;;;;;;15.27;100.00;95547.59;10481177;28;2024;-77
2023/07/27 06:03:55;;;;;;;;;;;;;;;15.21;100.00;95550.72;10480641;28;1962;-76
2023/07/27 06:09:10;;;;;;;;;;;;;;;15.08;100.00;95542.34;10480151;28;2108;-76
2023/07/27 06:14:13;;;;;;;;;;;;;;;15.54;100.00;95538.50;10492702;28;2128;-77
2023/07/27 06:19:17;;;;;;;;;;;;;;;15.38;100.00;95540.00;10492505;28;1989;-77
2023/07/27 06:24:25;;;;;;;;;;;;;;;15.57;100.00;95543.28;10474252;28;1949;-77
2023/07/27 06:29:43;;;;;;;;;;;;;;;15.66;100.00;95546.09;10487737;28;2102;-77
2023/07/27 06:34:50;;;;;;;;;;;;;;;16.35;100.00;95534.69;10484076;28;1911;-75
2023/07/27 06:39:55;;;;;;;;;;;;;;;16.51;100.00;95538.56;10480522;28;4652;-77
2023/07/27 06:45:07;;;;;;;;;;;;;;;16.79;100.00;95530.13;10487972;28;2007;-76
2023/07/27 06:50:23;;;;;;;;;;;;;;;16.45;100.00;95534.38;10481999;28;2442;-75
2023/07/27 06:55:35;;;;;;;;;;;;;;;16.62;100.00;95522.78;10481330;28;1953;-77
2023/07/27 07:00:41;;;;;;;;;;;;;;;17.19;100.00;95520.72;10481070;28;1987;-76
2023/07/27 07:05:51;;;;;;;;;;;;;;;18.29;100.00;95518.28;10485176;28;1910;-76
2023/07/27 07:10:57;;;;;;;;;;;;;;;18.92;100.00;95510.22;10484403;28;1971;-77
2023/07/27 07:16:05;;;;;;;;;;;;;;;19.36;100.00;95517.66;10471526;28;2041;-76
2023/07/27 07:21:13;;;;;;;;;;;;;;;20.01;100.00;95509.75;10484522;28;1983;-76
2023/07/27 07:26:22;;;;;;;;;;;;;;;19.87;100.00;95512.81;10463076;28;1969;-76
2023/07/27 07:31:30;;;;;;;;;;;;;;;19.85;100.00;95508.81;10485238;28;1867;-76
2023/07/27 07:36:36;;;;;;;;;;;;;;;19.62;100.00;95490.16;10480641;28;4562;-75
2023/07/27 07:41:55;;;;;;;;;;;;;;;20.08;100.00;95495.56;10475945;28;2130;-76
2023/07/27 07:46:58;;;;;;;;;;;;;;;20.15;100.00;95488.38;10479818;28;2536;-76
2023/07/27 07:52:03;;;;;;;;;;;;;;;20.40;95.33;95472.78;10481947;28;1963;-76
2023/07/27 07:57:14;;;;;;;;;;;;;;;20.78;89.75;95466.94;10482283;28;1960;-76
2023/07/27 08:02:22;;;;;;;;;;;;;;;21.46;83.81;95463.38;10489335;28;1961;-76
2023/07/27 08:07:28;;;;;;;;;;;;;;;21.80;81.00;95450.94;10481054;28;1973;-76
2023/07/27 08:12:49;;;;;;;;;;;;;;;21.53;85.73;95460.03;10483731;28;1871;-77
2023/07/27 08:17:54;;;;;;;;;;;;;;;21.38;78.86;95445.19;10481091;28;2060;-77
2023/07/27 08:22:57;;;;;;;;;;;;;;;22.10;74.34;95437.63;10481801;28;1918;-75
2023/07/27 08:28:01;;;;;;;;;;;;;;;22.09;71.38;95429.78;10477252;28;2010;-75
2023/07/27 08:33:09;;;;;;;;;;;;;;;22.39;68.29;95427.31;10485639;28;1954;-75
2023/07/27 08:38:19;;;;;;;;;;;;;;;22.66;65.78;95418.16;10478406;28;4540;-75
2023/07/27 08:43:33;;;;;;;;;;;;;;;22.57;62.77;95417.53;10477216;28;2434;-75
2023/07/27 08:48:43;;;;;;;;;;;;;;;22.78;63.05;95419.16;10483993;28;1938;-76
2023/07/27 08:53:48;;;;;;;;;;;;;;;23.17;59.05;95423.50;10478287;28;1989;-76
2023/07/27 08:58:52;;;;;;;;;;;;;;;23.19;61.43;95423.91;10476877;28;2092;-76
2023/07/27 09:03:58;;;;;;;;;;;;;;;23.82;57.61;95413.69;10485422;28;1910;-75
2023/07/27 09:09:09;;;;;;;;;;;;;;;23.97;52.33;95410.00;10464802;28;2067;-75
2023/07/27 09:14:16;;;;;;;;;;;;;;;23.32;57.53;95413.59;10478595;28;1969;-75
2023/07/27 09:19:19;;;;;;;;;;;;;;;24.23;51.73;95403.72;10489814;28;2065;-75
2023/07/27 09:24:31;;;;;;;;;;;;;;;24.47;50.87;95417.06;10476208;28;1981;-76
2023/07/27 09:29:35;;;;;;;;;;;;;;;24.43;46.59;95399.75;10474494;28;2237;-75
2023/07/27 09:34:42;;;;;;;;;;;;;;;24.54;48.71;95399.88;10470670;28;2243;-75
2023/07/27 09:39:46;;;;;;;;;;;;;;;24.50;46.27;95393.56;10470748;28;4446;-76
2023/07/27 09:44:52;;;;;;;;;;;;;;;24.51;45.56;95381.41;10484760;28;1868;-75
2023/07/27 09:49:56;;;;;;;;;;;;;;;24.45;48.80;95377.41;10481188;28;1887;-75
2023/07/27 09:55:09;;;;;;;;;;;;;;;24.67;43.84;95376.50;10476438;28;1981;-75
2023/07/27 10:00:14;;;;;;;;;;;;;;;23.93;44.79;95381.72;10474039;28;1986;-76
2023/07/27 10:05:22;;;;;;;;;;;;;;;24.28;47.30;95374.00;10481902;28;1900;-75
2023/07/27 10:10:32;;;;;;;;;;;;;;;24.70;47.41;95369.47;10480032;28;1884;-76
2023/07/27 10:15:40;;;;;;;;;;;;;;;24.66;43.78;95357.63;10482395;28;2110;-75
2023/07/27 10:20:43;;;;;;;;;;;;;;;24.47;46.12;95350.34;10485089;28;1948;-76
2023/07/27 10:25:46;;;;;;;;;;;;;;;24.15;49.26;95355.38;10482159;28;1852;-76
2023/07/27 10:30:53;;;;;;;;;;;;;;;24.44;45.40;95351.09;10482829;28;1867;-75
2023/07/27 10:35:57;;;;;;;;;;;;;;;23.90;46.28;95338.53;10479614;28;4604;-75
2023/07/27 10:41:00;;;;;;;;;;;;;;;24.11;46.46;95327.06;10477028;28;1973;-75
2023/07/27 10:46:06;;;;;;;;;;;;;;;24.72;47.91;95326.69;10488482;28;1880;-76
2023/07/27 10:51:17;;;;;;;;;;;;;;;25.79;44.01;95321.47;10461000;28;1887;-76
2023/07/27 10:56:23;;;;;;;;;;;;;;;25.89;43.34;95323.50;10482236;28;1962;-75
2023/07/27 11:01:27;;;;;;;;;;;;;;;25.42;39.13;95321.53;10482496;28;1950;-76
2023/07/27 11:06:31;;;;;;;;;;;;;;;24.56;41.91;95322.56;10477305;28;1911;-76
2023/07/27 11:16:54;;;;;;;;;;;;;;;25.52;40.67;95315.34;10479974;28;1979;-77
2023/07/27 11:21:59;;;;;;;;;;;;;;;25.04;42.02;95307.81;10485168;28;1880;-75
2023/07/27 11:27:04;;;;;;;;;;;;;;;25.52;40.92;95307.88;10482791;28;1863;-76
2023/07/27 11:32:10;;;;;;;;;;;;;;;25.85;41.95;95300.66;10482375;28;2637;-76
2023/07/27 11:37:15;;;;;;;;;;;;;;;25.24;42.58;95305.66;10480769;28;4602;-76
2023/07/27 11:42:28;;;;;;;;;;;;;;;25.62;42.38;95303.59;10483477;28;1820;-77
2023/07/27 11:47:36;;;;;;;;;;;;;;;25.72;41.71;95297.41;10483397;28;1923;-77
2023/07/27 11:52:42;;;;;;;;;;;;;;;24.08;43.36;95301.13;10480724;28;2107;-76
2023/07/27 11:57:46;;;;;;;;;;;;;;;24.15;45.23;95301.22;10482781;28;1898;-76
2023/07/27 12:02:55;;;;;;;;;;;;;;;24.07;46.91;95288.59;10495815;28;1946;-76
2023/07/27 12:08:18;;;;;;;;;;;;;;;24.30;48.36;95273.94;10484035;28;1883;-77
2023/07/27 12:13:28;;;;;;;;;;;;;;;24.64;48.43;95267.31;10480465;28;1852;-76
2023/07/27 12:18:35;;;;;;;;;;;;;;;24.99;48.75;95255.09;10479365;28;1973;-74
2023/07/27 12:23:46;;;;;;;;;;;;;;;25.25;46.34;95254.97;10475764;28;1856;-76
2023/07/27 12:29:17;;;;;;;;;;;;;;;26.00;45.10;95249.22;10476476;28;2298;-77
2023/07/27 12:34:47;;;;;;;;;;;;;;;26.08;46.58;95243.38;10476959;28;1898;-77
2023/07/27 12:39:57;;;;;;;;;;;;;;;25.25;47.52;95252.22;10482291;28;4589;-75
2023/07/27 12:45:26;;;;;;;;;;;;;;;25.02;49.77;95259.84;10485205;28;1812;-77
2023/07/27 12:50:32;;;;;;;;;;;;;;;25.19;47.80;95250.19;10479422;28;1848;-77
2023/07/27 12:55:39;;;;;;;;;;;;;;;25.80;45.96;95232.19;10482166;28;1871;-76
2023/07/27 13:00:54;;;;;;;;;;;;;;;26.14;45.43;95241.81;10481707;28;1940;-76
2023/07/27 13:06:11;;;;;;;;;;;;;;;25.87;47.03;95229.47;10476674;28;1871;-77
2023/07/27 13:11:31;;;;;;;;;;;;;;;25.82;46.59;95225.13;10483004;28;1947;-78
2023/07/27 13:16:44;;;;;;;;;;;;;;;25.98;45.67;95222.06;10463589;28;1892;-79
2023/07/27 13:21:48;;;;;;;;;;;;;;;25.80;45.52;95212.91;10467055;28;2624;-78
2023/07/27 13:26:53;;;;;;;;;;;;;;;25.03;50.78;95212.72;10456268;28;1899;-78
2023/07/27 13:32:01;;;;;;;;;;;;;;;24.97;49.72;95208.75;10475744;28;1788;-79
2023/07/27 13:37:11;;;;;;;;;;;;;;;24.26;53.66;95219.00;10482630;28;4571;-77
2023/07/27 13:42:24;;;;;;;;;;;;;;;23.68;54.65;95211.19;10483488;28;1828;-77
2023/07/27 13:47:30;;;;;;;;;;;;;;;23.41;55.79;95204.88;10477952;28;2371;-77
2023/07/27 13:52:39;;;;;;;;;;;;;;;23.23;57.93;95201.13;10478742;28;1877;-76
2023/07/27 13:57:47;;;;;;;;;;;;;;;22.90;58.99;95208.00;10479201;28;1922;-78
2023/07/27 14:03:02;;;;;;;;;;;;;;;22.75;60.45;95200.69;10480462;28;2077;-77
2023/07/27 14:08:18;;;;;;;;;;;;;;;22.68;60.72;95204.09;10477784;28;1869;-78
2023/07/27 14:13:29;;;;;;;;;;;;;;;22.45;66.05;95198.59;10479676;28;1909;-78
2023/07/27 14:18:34;;;;;;;;;;;;;;;22.57;65.20;95189.41;10477496;28;1997;-78
2023/07/27 14:23:38;;;;;;;;;;;;;;;22.46;64.80;95186.50;10481616;28;1866;-78
2023/07/27 14:29:00;;;;;;;;;;;;;;;22.53;67.28;95192.09;10480800;28;1911;-77
2023/07/27 14:34:08;;;;;;;;;;;;;;;22.62;66.47;95189.91;10477759;28;1868;-78
2023/07/27 14:39:13;;;;;;;;;;;;;;;22.55;68.46;95191.72;10478336;28;1984;-78
2023/07/27 14:44:18;;;;;;;;;;;;;;;22.26;82.42;95204.09;10481828;28;1852;-78
2023/07/27 14:49:27;;;;;;;;;;;;;;;21.85;95.61;95200.91;10472207;28;2006;-78
2023/07/27 14:54:42;;;;;;;;;;;;;;;21.45;100.00;95204.75;10477521;28;1871;-78
2023/07/27 14:59:55;;;;;;;;;;;;;;;21.15;100.00;95200.91;10475610;28;1914;-77
2023/07/27 15:05:10;;;;;;;;;;;;;;;21.47;100.00;95199.72;10482415;28;2125;-78
2023/07/27 15:10:17;;;;;;;;;;;;;;;21.17;100.00;95195.88;10480057;28;2017;-78
2023/07/27 15:15:35;;;;;;;;;;;;;;;21.22;100.00;95192.88;10478577;28;2271;-79
2023/07/27 15:20:42;;;;;;;;;;;;;;;21.11;100.00;95189.09;10475439;28;1980;-77
2023/07/27 15:25:49;;;;;;;;;;;;;;;21.13;100.00;95184.09;10480799;28;1858;-78
2023/07/27 15:30:57;;;;;;;;;;;;;;;21.49;100.00;95188.41;10479164;28;1848;-78
2023/07/27 15:36:08;;;;;;;;;;;;;;;20.74;100.00;95183.91;10475095;28;4500;-77
2023/07/27 15:41:18;;;;;;;;;;;;;;;20.04;100.00;95180.88;10478655;28;1950;-78
2023/07/27 15:46:21;;;;;;;;;;;;;;;20.39;100.00;95175.59;10480484;28;2142;-83
2023/07/27 16:02:20;;;;;;;;;;;;;;;20.49;100.00;95173.19;10482947;28;1964;-74
2023/07/27 16:07:23;;;;;;;;;;;;;;;20.81;100.00;95173.19;10477812;28;1848;-73
2023/07/27 16:12:27;;;;;;;;;;;;;;;20.74;100.00;95170.25;10481976;28;2398;-74
2023/07/27 16:17:39;;;;;;;;;;;;;;;20.91;100.00;95160.91;10473448;28;2040;-77
2023/07/27 16:22:49;;;;;;;;;;;;;;;21.04;100.00;95157.72;10485419;28;1863;-75
2023/07/27 16:27:53;;;;;;;;;;;;;;;21.27;100.00;95154.34;10486256;28;1907;-74
2023/07/27 16:32:56;;;;;;;;;;;;;;;21.76;100.00;95151.91;10478419;28;1840;-75
2023/07/27 16:38:00;;;;;;;;;;;;;;;21.77;100.00;95139.00;10481514;28;4535;-76
2023/07/27 16:43:06;;;;;;;;;;;;;;;21.91;100.00;95139.28;10486314;28;1976;-75
2023/07/27 16:48:13;;;;;;;;;;;;;;;21.69;100.00;95137.25;10478495;28;1832;-75
2023/07/27 16:53:21;;;;;;;;;;;;;;;21.48;100.00;95143.88;10497810;28;1948;-75
2023/07/27 16:58:27;;;;;;;;;;;;;;;21.18;100.00;95140.06;10490759;28;1992;-75
2023/07/27 17:03:32;;;;;;;;;;;;;;;20.47;100.00;95134.50;10481463;28;1837;-76
2023/07/27 17:08:37;;;;;;;;;;;;;;;20.15;100.00;95132.84;10482822;28;2337;-75
2023/07/27 17:13:46;;;;;;;;;;;;;;;19.93;100.00;95132.31;10483061;28;1871;-75
2023/07/27 17:18:53;;;;;;;;;;;;;;;19.75;100.00;95135.69;10480066;28;1918;-75
2023/07/27 17:23:57;;;;;;;;;;;;;;;19.78;100.00;95141.22;10478690;28;2013;-75
2023/07/27 17:29:00;;;;;;;;;;;;;;;19.86;100.00;95137.56;10476230;28;1893;-75
2023/07/27 17:34:03;;;;;;;;;;;;;;;20.02;100.00;95126.69;10479696;28;1923;-75
2023/07/27 17:39:08;;;;;;;;;;;;;;;20.17;100.00;95108.75;10486312;28;4466;-74
2023/07/27 17:44:13;;;;;;;;;;;;;;;20.37;100.00;95118.63;10481960;28;1848;-75
2023/07/27 17:49:17;;;;;;;;;;;;;;;20.32;100.00;95116.16;10484864;28;1848;-76
2023/07/27 17:54:24;;;;;;;;;;;;;;;20.34;100.00;95113.84;10478402;28;1966;-75
2023/07/27 17:59:27;;;;;;;;;;;;;;;20.27;100.00;95101.97;10483019;28;2051;-77
2023/07/27 18:04:32;;;;;;;;;;;;;;;20.22;100.00;95108.47;10483278;28;1839;-75
2023/07/27 18:09:38;;;;;;;;;;;;;;;19.92;100.00;95114.34;10472266;28;1932;-76
2023/07/27 18:14:47;;;;;;;;;;;;;;;19.52;100.00;95110.84;10483290;28;1899;-76
2023/07/27 18:19:51;;;;;;;;;;;;;;;19.28;100.00;95107.09;10487771;28;1992;-77
2023/07/27 18:24:56;;;;;;;;;;;;;;;18.98;100.00;95097.63;10490501;28;1896;-77
2023/07/27 18:30:07;;;;;;;;;;;;;;;18.81;100.00;95095.94;10486366;28;2016;-77
2023/07/27 18:35:20;;;;;;;;;;;;;;;18.71;100.00;95102.66;10485195;28;2026;-79
2023/07/27 18:40:26;;;;;;;;;;;;;;;18.57;100.00;95108.38;10484383;28;4441;-78
2023/07/27 18:45:31;;;;;;;;;;;;;;;18.60;100.00;95102.28;10486993;28;1887;-78
2023/07/27 18:50:37;;;;;;;;;;;;;;;18.68;100.00;95100.59;10484354;28;1922;-78
2023/07/27 18:55:40;;;;;;;;;;;;;;;18.68;100.00;95100.59;10482904;28;1998;-77
2023/07/27 19:00:50;;;;;;;;;;;;;;;18.70;100.00;95105.69;10492572;28;2416;-78
2023/07/27 19:05:56;;;;;;;;;;;;;;;18.67;100.00;95104.44;10487812;28;1876;-76
2023/07/27 19:11:04;;;;;;;;;;;;;;;18.59;100.00;95099.91;10492797;28;2006;-77
2023/07/27 19:16:09;;;;;;;;;;;;;;;18.55;100.00;95107.13;10461842;28;1890;-77
2023/07/27 19:21:12;;;;;;;;;;;;;;;18.54;100.00;95119.16;10485179;28;1972;-77
2023/07/27 19:26:17;;;;;;;;;;;;;;;18.51;100.00;95119.84;10487321;28;1857;-76
2023/07/27 19:31:23;;;;;;;;;;;;;;;18.49;100.00;95130.28;10466908;28;1809;-76
2023/07/27 19:36:27;;;;;;;;;;;;;;;18.49;100.00;95124.81;10482093;28;4626;-76
2023/07/27 19:41:37;;;;;;;;;;;;;;;18.45;100.00;95119.28;10485606;28;1938;-75
2023/07/27 19:46:46;;;;;;;;;;;;;;;18.47;100.00;95118.94;10484875;28;1876;-76
2023/07/27 19:51:58;;;;;;;;;;;;;;;18.45;100.00;95118.47;10485038;28;1773;-76
2023/07/27 19:57:05;;;;;;;;;;;;;;;18.40;100.00;95114.06;10478311;28;2418;-76
2023/07/27 20:02:13;;;;;;;;;;;;;;;18.33;100.00;95109.19;10482775;28;1898;-76
2023/07/27 20:07:17;;;;;;;;;;;;;;;18.34;100.00;95105.31;10483542;28;1945;-75
2023/07/27 20:12:30;;;;;;;;;;;;;;;18.33;100.00;95103.75;10486838;28;1914;-76
2023/07/27 20:17:41;;;;;;;;;;;;;;;18.32;100.00;95110.31;10486049;28;1939;-76
2023/07/27 20:22:47;;;;;;;;;;;;;;;18.29;100.00;95115.63;10483568;28;1988;-76
2023/07/27 20:28:00;;;;;;;;;;;;;;;18.18;100.00;95109.81;10484170;28;1899;-77
2023/07/27 20:33:06;;;;;;;;;;;;;;;18.16;100.00;95112.09;10492998;28;1841;-77
2023/07/27 20:38:10;;;;;;;;;;;;;;;18.13;100.00;95118.19;10481811;28;4676;-76
2023/07/27 20:43:20;;;;;;;;;;;;;;;18.10;100.00;95108.00;10478909;28;2019;-76
2023/07/27 20:48:27;;;;;;;;;;;;;;;18.03;100.00;95110.50;10479764;28;1876;-76
2023/07/27 20:54:04;;;;;;;;;;;;;;;17.94;100.00;95107.06;10476250;28;2371;-76
2023/07/27 20:59:09;;;;;;;;;;;;;;;17.94;100.00;95101.63;10469855;28;1937;-77
2023/07/27 21:04:13;;;;;;;;;;;;;;;17.87;100.00;95093.22;10475617;28;1898;-74
2023/07/27 21:09:16;;;;;;;;;;;;;;;17.97;100.00;95095.53;10477537;28;1870;-69
2023/07/27 21:14:18;;;;;;;;;;;;;;;18.24;100.00;95085.91;10478836;28;1887;-70
2023/07/27 21:19:21;;;;;;;;;;;;;;;18.23;100.00;95093.28;10481967;28;1946;-70
2023/07/27 21:24:29;;;;;;;;;;;;;;;18.26;100.00;95084.47;10477868;28;2049;-71
2023/07/27 21:29:36;;;;;;;;;;;;;;;18.16;100.00;95084.91;10482712;28;1852;-72
2023/07/27 21:34:39;;;;;;;;;;;;;;;18.08;100.00;95091.25;10480188;28;2002;-73
2023/07/27 21:39:42;;;;;;;;;;;;;;;18.14;100.00;95083.66;10474842;28;4524;-70
2023/07/27 21:44:47;;;;;;;;;;;;;;;18.07;100.00;95086.94;10483397;28;1824;-69
2023/07/27 21:49:55;;;;;;;;;;;;;;;18.15;100.00;95077.88;10477555;28;2428;-70
2023/07/27 21:55:00;;;;;;;;;;;;;;;17.97;100.00;95087.38;10483872;28;1854;-68
2023/07/27 22:00:03;;;;;;;;;;;;;;;17.89;100.00;95086.34;10487587;28;1963;-69
2023/07/27 22:05:07;;;;;;;;;;;;;;;17.80;100.00;95091.06;10481274;28;1887;-71
2023/07/27 22:10:10;;;;;;;;;;;;;;;17.73;100.00;95094.31;10479631;28;1879;-71
2023/07/27 22:15:16;;;;;;;;;;;;;;;17.95;100.00;95097.78;10488526;28;1840;-72
2023/07/27 22:20:19;;;;;;;;;;;;;;;17.88;100.00;95095.63;10480501;28;1992;-71
2023/07/27 22:25:22;;;;;;;;;;;;;;;17.84;100.00;95100.13;10480107;28;1915;-72
2023/07/27 22:30:28;;;;;;;;;;;;;;;17.79;100.00;95100.34;10481249;28;2045;-72
2023/07/27 22:35:32;;;;;;;;;;;;;;;17.80;100.00;95100.00;10488379;28;1836;-71
2023/07/27 22:40:35;;;;;;;;;;;;;;;17.79;100.00;95095.69;10490252;28;4537;-70
2023/07/27 22:45:38;;;;;;;;;;;;;;;17.67;100.00;95100.28;10482879;28;2070;-70
2023/07/27 22:50:52;;;;;;;;;;;;;;;17.57;100.00;95101.50;10491407;28;1871;-71
2023/07/27 22:55:56;;;;;;;;;;;;;;;17.42;100.00;95099.38;10472409;28;1818;-69
2023/07/27 23:01:02;;;;;;;;;;;;;;;17.26;100.00;95088.34;10479954;28;2028;-71
2023/07/27 23:06:10;;;;;;;;;;;;;;;17.11;100.00;95100.59;10480530;28;2095;-71
2023/07/27 23:11:13;;;;;;;;;;;;;;;17.06;100.00;95108.16;10488174;28;2182;-71
2023/07/27 23:16:28;;;;;;;;;;;;;;;16.93;100.00;95099.16;10493770;28;2002;-70
2023/07/27 23:21:32;;;;;;;;;;;;;;;16.92;100.00;95097.53;10479719;28;1985;-73
2023/07/27 23:26:37;;;;;;;;;;;;;;;16.86;100.00;95109.69;10482646;28;1867;-71
2023/07/27 23:31:41;;;;;;;;;;;;;;;16.78;100.00;95105.13;10483849;28;1868;-72
2023/07/27 23:36:44;;;;;;;;;;;;;;;16.64;100.00;95098.00;10486824;28;4663;-70
2023/07/27 23:41:49;;;;;;;;;;;;;;;16.67;100.00;95107.41;10500207;28;2326;-70
2023/07/27 23:46:52;;;;;;;;;;;;;;;16.57;100.00;95102.34;10481961;28;1911;-71
2023/07/27 23:51:55;;;;;;;;;;;;;;;16.65;100.00;95096.09;10481328;28;2164;-71
2023/07/27 23:56:58;;;;;;;;;;;;;;;16.41;100.00;95089.38;10475024;28;1949;-70
